CAUA4: Poteau River At Cauthron, AR

Data processed at Mon Sep 24 2018 22:32


All information presented herein is the property of the government of the United States of America and may be revised or deleted at any time without prior notice.
Dissemination of this information without the expressed written consent of the Public Affairs Office, Tulsa District U.S. Army Corps of Engineers is strictly prohibited.
These data are gathered electronically and, as presented, have not undergone any form of quality control. These data are not guaranteed to be valid or correct.
Go to home page.
Go to station list.
Go to home page.

Downstream station:


Previous Day
Next Day
Current Day
    
SHEF ID:       CAUA4     Poteau River at Cauthron, AR
STATION TYPE:  

               PRECIP     STAGE  RIV-FLOW  BAT-LOAD
                   in        ft       cfs      volt
              Ccp-Rev   Ccp-Rev   Ccp-Rev   Ccp-Rev
(US/Central)
09/24 00:00      0.00      5.05        95     12.48
09/24 01:00      0.00      5.14       117     12.48
09/24 02:00      0.01      5.35       182     12.48
09/24 03:00      0.00      5.63       328     12.42
09/24 04:00      0.00      5.86       530     12.42
09/24 05:00      0.00      6.20       887     12.42
09/24 06:00      0.00      6.58      1138     12.42
09/24 07:00      0.00      6.85      1313     12.42
09/24 08:00      0.00      6.93      1367     12.42
09/24 09:00      0.00      6.85      1313     12.48
09/24 10:00      0.00      6.70      1215     12.54
09/24 11:00      0.00      6.52      1100     12.71
09/24 12:00      0.00      6.34       989     13.30
09/24 13:00      0.00      6.18       871     13.18
09/24 14:00      0.00      6.06       757     13.36
09/24 15:00      0.00      5.96       642     13.00
09/24 16:00      0.00      5.86       530     12.89
09/24 17:00      0.00      5.79       461     12.89
09/24 18:00      0.00      5.72       398     12.83
09/24 19:00      0.00      5.66       350     12.71
09/24 20:00      0.00      5.62       320     12.71
09/24 21:00      0.00      5.57       286     12.65
09/24 22:00      ----      ----      ----     12.65
09/24 23:00      ----      ----      ----      ----